Rain radar more information rain snow radar


Equipment we use:

Davis VP2

Weather Display

BareMetal


Nearby METAR Reports

   
CYAZ - Tofino, BC
Updated: 06-18-2019 10:00
Mostly Cloudy  
Mostly Cloudy  
   Wind: South 7.4 km/h
Wind: South 7.4 km/h
Temperature: 15°C
Dew Point: 13°C
Humidity: 88%
Barometer: 1023.4 hPa
Clouds: Mostly Cloudy
Visibility: 24 km
Cloud details: Partly Cloudy 579.1 m,
Mostly Cloudy 3657.6 m,
Mostly Cloudy 6705.6 m
CYAZ 181700Z 19004KT 15SM SCT019 BKN120 BKN220 15/13 A3022 RMK SC4AC1CI2 SLP235
CYPR - Prince Rupert,BC
Updated: 06-18-2019 10:10
Light Rain, Overcast  
Light Rain, Overcast  
   Wind: SSE 13 km/h
Wind: SSE 13 km/h
Temperature: 11°C
Dew Point: 10°C
Humidity: 94%
Barometer: 1021.7 hPa
Clouds: Overcast
Visibility: 15 km
Cloud details: Mostly Cloudy 518.2 m,
Mostly Cloudy 1280.2 m,
Overcast 1493.5 m
CYPR 181710Z AUTO 15007KT 9SM -RA BKN017 BKN042 OVC049 11/10 A3017 RMK SLP218
CYYT - St. John's, NL
Updated: 06-18-2019 10:00
Mostly Cloudy  
Mostly Cloudy  
   Wind: NW 25.9 km/h
Wind: NW 25.9 km/h
Temperature: 17°C
Dew Point: 10°C
Humidity: 64%
Barometer: 1006.1 hPa
Clouds: Mostly Cloudy
Visibility: 24 km
Cloud details: Mostly Cloudy 1524 m
CYYT 181700Z 31014KT 15SM BKN050 17/10 A2971 RMK SC7 SLP064 DENSITY ALT 1100FT

Script developed by  Saratoga-weather.org Adapted for the template by  Weerstation Leuven